createdAt,value
2017-08-21T00:00:58.214Z,17.46
2017-08-21T00:03:25.864Z,17.56
2017-08-21T00:05:53.486Z,17.59
2017-08-21T00:08:21.126Z,17.55
2017-08-21T00:10:48.738Z,17.55
2017-08-21T00:13:16.330Z,17.49
2017-08-21T00:15:43.951Z,17.44
2017-08-21T00:18:11.550Z,17.45
2017-08-21T00:20:39.197Z,17.49
2017-08-21T00:23:06.786Z,17.56
2017-08-21T00:25:34.385Z,17.51
2017-08-21T00:28:02.030Z,17.46
2017-08-21T00:30:29.661Z,17.40
2017-08-21T00:32:57.286Z,17.31
2017-08-21T00:35:24.934Z,17.22
2017-08-21T00:37:52.538Z,16.97
2017-08-21T00:40:20.146Z,16.87
2017-08-21T00:42:47.775Z,16.85
2017-08-21T00:45:15.382Z,16.84
2017-08-21T00:47:43.018Z,16.76
2017-08-21T00:50:10.610Z,16.71
2017-08-21T00:52:38.234Z,16.74
2017-08-21T00:55:05.830Z,16.84
2017-08-21T00:57:33.470Z,16.86
2017-08-21T01:00:01.071Z,16.81
2017-08-21T01:02:28.700Z,16.86
2017-08-21T01:04:56.297Z,16.93
2017-08-21T01:07:23.916Z,16.93
2017-08-21T01:09:51.508Z,16.95
2017-08-21T01:12:19.131Z,16.91
2017-08-21T01:14:46.862Z,16.83
2017-08-21T01:17:14.514Z,16.75
2017-08-21T01:19:42.183Z,16.77
2017-08-21T01:22:09.887Z,16.79
2017-08-21T01:24:37.527Z,16.77
2017-08-21T01:27:05.167Z,16.70
2017-08-21T01:29:32.935Z,16.66
2017-08-21T01:32:00.579Z,16.60
2017-08-21T01:34:28.282Z,16.59
2017-08-21T01:36:55.913Z,16.67
2017-08-21T01:39:23.567Z,16.74
2017-08-21T01:41:51.197Z,16.82
2017-08-21T01:44:18.936Z,16.80
2017-08-21T01:46:46.567Z,16.74
2017-08-21T01:49:14.277Z,16.75
2017-08-21T01:51:41.984Z,16.73
2017-08-21T01:54:09.912Z,16.64
2017-08-21T01:56:37.798Z,16.60
2017-08-21T01:59:05.795Z,16.60
2017-08-21T02:01:35.455Z,16.51
2017-08-21T02:04:03.425Z,16.42
2017-08-21T02:06:31.408Z,16.39
2017-08-21T02:08:59.268Z,16.40
2017-08-21T02:11:27.476Z,16.46
2017-08-21T02:13:55.237Z,16.45
2017-08-21T02:16:23.080Z,16.35
2017-08-21T02:18:50.746Z,16.28
2017-08-21T02:21:18.353Z,16.20
2017-08-21T02:23:46.028Z,16.20
2017-08-21T02:26:13.626Z,16.21
2017-08-21T02:28:41.223Z,16.27
2017-08-21T02:31:08.916Z,16.19
2017-08-21T02:33:36.535Z,16.00
2017-08-21T02:36:04.154Z,15.97
2017-08-21T02:38:43.315Z,16.03
2017-08-21T02:41:10.955Z,16.07
2017-08-21T02:43:38.594Z,16.12
2017-08-21T02:46:06.186Z,16.21
2017-08-21T02:48:33.866Z,16.20
2017-08-21T02:51:01.502Z,16.18
2017-08-21T02:53:29.080Z,16.15
2017-08-21T02:55:56.702Z,16.08
2017-08-21T02:58:24.295Z,16.05
2017-08-21T03:00:51.986Z,16.03
2017-08-21T03:03:19.660Z,16.09
2017-08-21T03:05:47.310Z,16.14
2017-08-21T03:08:14.900Z,16.14
2017-08-21T03:10:42.510Z,16.13
2017-08-21T03:13:10.107Z,16.12
2017-08-21T03:15:37.759Z,16.14
2017-08-21T03:18:05.351Z,16.10
2017-08-21T03:20:32.930Z,16.09
2017-08-21T03:23:00.636Z,16.12
2017-08-21T03:25:28.231Z,16.03
2017-08-21T03:27:55.903Z,16.00
2017-08-21T03:30:23.498Z,16.01
2017-08-21T03:32:51.126Z,16.05
2017-08-21T03:35:18.724Z,16.13
2017-08-21T03:37:46.799Z,16.15
2017-08-21T03:40:14.639Z,16.18
2017-08-21T03:42:42.427Z,16.12
2017-08-21T03:45:10.286Z,16.10
2017-08-21T03:47:38.460Z,16.06
2017-08-21T03:50:06.538Z,16.06
2017-08-21T03:52:35.780Z,16.05
2017-08-21T03:55:05.239Z,16.01
2017-08-21T03:57:33.211Z,15.98
2017-08-21T04:00:02.753Z,16.00
2017-08-21T04:02:37.620Z,16.02
2017-08-21T04:05:06.024Z,16.03
2017-08-21T04:07:35.802Z,16.02
2017-08-21T04:10:03.805Z,16.02
2017-08-21T04:12:31.970Z,16.00
2017-08-21T04:15:05.245Z,15.96
2017-08-21T04:17:33.341Z,15.89
2017-08-21T04:20:00.930Z,15.89
2017-08-21T04:22:28.554Z,15.86
2017-08-21T04:24:56.154Z,15.80
2017-08-21T04:27:23.806Z,15.78
2017-08-21T04:29:51.402Z,15.77
2017-08-21T04:32:19.059Z,15.75
2017-08-21T04:34:47.105Z,15.74
2017-08-21T04:37:14.937Z,15.75
2017-08-21T04:39:46.088Z,15.70
2017-08-21T04:42:14.095Z,15.60
2017-08-21T04:44:41.731Z,15.57
2017-08-21T04:47:09.322Z,15.57
2017-08-21T04:49:36.950Z,15.57
2017-08-21T04:52:04.533Z,15.50
2017-08-21T04:54:32.154Z,15.34
2017-08-21T04:56:59.767Z,15.29
2017-08-21T04:59:27.396Z,15.32
2017-08-21T05:01:54.994Z,15.30
2017-08-21T05:04:22.982Z,15.38
2017-08-21T05:06:50.877Z,15.42
2017-08-21T05:09:18.827Z,15.43
2017-08-21T05:11:46.870Z,15.40
2017-08-21T05:14:15.884Z,15.41
2017-08-21T05:16:43.837Z,15.40
2017-08-21T05:19:12.983Z,15.60
2017-08-21T05:21:40.851Z,15.89
2017-08-21T05:24:08.801Z,15.84
2017-08-21T05:26:36.662Z,15.78
2017-08-21T05:29:04.850Z,15.68
2017-08-21T05:31:34.104Z,15.62
2017-08-21T05:34:01.674Z,15.58
2017-08-21T05:36:30.491Z,15.52
2017-08-21T05:38:58.081Z,15.45
2017-08-21T05:41:25.694Z,15.44
2017-08-21T05:43:53.286Z,15.47
2017-08-21T05:46:20.921Z,15.44
2017-08-21T05:48:48.516Z,15.43
2017-08-21T05:51:16.150Z,15.47
2017-08-21T05:53:43.763Z,15.55
2017-08-21T05:56:11.366Z,15.63
2017-08-21T05:58:38.982Z,15.69
2017-08-21T06:01:06.575Z,15.68
2017-08-21T06:03:34.194Z,15.68
2017-08-21T06:06:01.830Z,15.64
2017-08-21T06:08:29.420Z,15.69
2017-08-21T06:10:57.055Z,15.73
2017-08-21T06:13:24.672Z,15.70
2017-08-21T06:15:52.284Z,15.63
2017-08-21T06:18:19.873Z,15.62
2017-08-21T06:20:47.502Z,15.61
2017-08-21T06:23:15.102Z,15.57
2017-08-21T06:25:42.697Z,15.59
2017-08-21T06:28:10.315Z,15.58
2017-08-21T06:30:37.942Z,15.64
2017-08-21T06:33:05.691Z,15.74
2017-08-21T06:35:33.292Z,15.75
2017-08-21T06:38:00.954Z,15.77
2017-08-21T06:40:28.546Z,15.84
2017-08-21T06:42:56.180Z,15.89
2017-08-21T06:45:23.766Z,15.88
2017-08-21T06:47:51.391Z,15.79
2017-08-21T06:50:19.002Z,15.83
2017-08-21T06:52:46.658Z,15.92
2017-08-21T06:55:14.266Z,15.98
2017-08-21T06:57:41.903Z,15.99
2017-08-21T07:00:09.604Z,16.03
2017-08-21T07:02:37.192Z,15.97
2017-08-21T07:05:04.815Z,15.95
2017-08-21T07:07:32.428Z,15.99
2017-08-21T07:10:00.064Z,16.03
2017-08-21T07:12:27.671Z,16.05
2017-08-21T07:14:55.302Z,16.14
2017-08-21T07:17:22.912Z,16.28
2017-08-21T07:19:50.554Z,16.34
2017-08-21T07:22:18.147Z,16.47
2017-08-21T07:24:45.819Z,16.52
2017-08-21T07:27:13.481Z,16.60
2017-08-21T07:29:41.070Z,16.61
2017-08-21T07:32:08.699Z,16.60
2017-08-21T07:34:36.315Z,16.60
2017-08-21T07:37:03.942Z,16.68
2017-08-21T07:39:31.527Z,16.72
2017-08-21T07:41:59.157Z,16.75
2017-08-21T07:44:26.782Z,16.77
2017-08-21T07:46:54.408Z,16.82
2017-08-21T07:49:22.103Z,16.78
2017-08-21T07:51:49.770Z,16.84
2017-08-21T07:54:17.371Z,16.87
2017-08-21T07:56:44.995Z,16.94
2017-08-21T07:59:12.591Z,17.04
2017-08-21T08:01:40.223Z,17.13
2017-08-21T08:04:07.901Z,17.22
2017-08-21T08:06:35.500Z,17.24
2017-08-21T08:09:03.133Z,17.27
2017-08-21T08:11:30.769Z,17.35
2017-08-21T08:13:58.386Z,17.42
2017-08-21T08:16:25.982Z,17.49
2017-08-21T08:18:53.598Z,17.50
2017-08-21T08:21:21.211Z,17.53
2017-08-21T08:23:48.893Z,17.63
2017-08-21T08:26:16.527Z,17.75
2017-08-21T08:28:44.119Z,17.74
2017-08-21T08:31:11.751Z,17.77
2017-08-21T08:33:39.351Z,17.86
2017-08-21T08:36:06.971Z,18.01
2017-08-21T08:38:34.570Z,18.14
2017-08-21T08:41:02.244Z,18.12
2017-08-21T08:43:32.469Z,18.19
2017-08-21T08:46:00.428Z,18.28
2017-08-21T08:48:28.188Z,18.33
2017-08-21T08:50:56.090Z,18.33
2017-08-21T08:53:24.010Z,18.32
2017-08-21T08:55:51.906Z,18.34
2017-08-21T08:58:19.755Z,18.41
2017-08-21T09:00:47.637Z,18.48
2017-08-21T09:03:15.537Z,18.55
2017-08-21T09:05:43.581Z,18.58
2017-08-21T09:08:11.636Z,18.68
2017-08-21T09:10:39.387Z,18.74
2017-08-21T09:13:07.067Z,18.70
2017-08-21T09:15:34.798Z,18.77
2017-08-21T09:18:02.738Z,18.88
2017-08-21T09:20:30.535Z,18.91
2017-08-21T09:22:58.156Z,18.98
2017-08-21T09:25:25.831Z,19.06
2017-08-21T09:27:53.468Z,19.09
2017-08-21T09:30:21.174Z,19.18
2017-08-21T09:32:48.814Z,19.27
2017-08-21T09:35:16.427Z,19.32
2017-08-21T09:37:44.071Z,19.38
2017-08-21T09:40:11.715Z,19.47
2017-08-21T09:42:39.364Z,19.56
2017-08-21T09:45:06.966Z,19.60
2017-08-21T09:47:34.681Z,19.68
2017-08-21T09:50:02.428Z,19.74
2017-08-21T09:52:30.051Z,19.84
2017-08-21T09:54:57.690Z,20.05
2017-08-21T09:57:25.306Z,20.22
2017-08-21T09:59:52.914Z,20.40
2017-08-21T10:02:20.570Z,20.36
2017-08-21T10:04:48.266Z,20.41
2017-08-21T10:07:15.866Z,20.45
2017-08-21T10:09:43.479Z,20.38
2017-08-21T10:12:11.070Z,20.59
2017-08-21T10:14:38.690Z,20.68
2017-08-21T10:17:06.372Z,20.80
2017-08-21T10:19:34.028Z,21.06
2017-08-21T10:22:01.629Z,21.07
2017-08-21T10:24:29.258Z,21.13
2017-08-21T10:26:56.879Z,21.31
2017-08-21T10:29:24.488Z,21.53
2017-08-21T10:31:52.083Z,21.73
2017-08-21T10:34:19.728Z,21.78
2017-08-21T10:37:28.215Z,21.57
2017-08-21T10:39:55.849Z,21.60
2017-08-21T10:42:23.434Z,21.69
2017-08-21T10:44:51.148Z,21.79
2017-08-21T10:47:18.763Z,21.88
2017-08-21T10:49:46.358Z,21.87
2017-08-21T10:52:14.142Z,22.01
2017-08-21T10:54:41.762Z,22.19
2017-08-21T10:57:09.391Z,22.39
2017-08-21T10:59:37.018Z,22.45
2017-08-21T11:02:04.642Z,22.64
2017-08-21T11:04:32.256Z,22.69
2017-08-21T11:06:59.888Z,22.88
2017-08-21T11:09:27.503Z,22.94
2017-08-21T11:11:55.135Z,23.06
2017-08-21T11:14:22.739Z,23.27
2017-08-21T11:16:50.351Z,23.21
2017-08-21T11:19:17.984Z,23.10
2017-08-21T11:21:45.631Z,22.76
2017-08-21T11:24:13.223Z,22.38
2017-08-21T11:26:40.823Z,22.18
2017-08-21T11:29:08.449Z,22.26
2017-08-21T11:31:36.034Z,22.36
2017-08-21T11:34:03.660Z,22.47
2017-08-21T11:36:31.303Z,22.78
2017-08-21T11:38:58.914Z,23.17
2017-08-21T11:41:26.538Z,23.43
2017-08-21T11:43:54.178Z,23.51
2017-08-21T11:46:21.766Z,23.64
2017-08-21T11:48:49.390Z,23.68
2017-08-21T11:51:16.982Z,23.77
2017-08-21T11:53:44.615Z,23.67
2017-08-21T11:56:12.201Z,23.88
2017-08-21T11:58:39.834Z,24.14
2017-08-21T12:01:07.435Z,24.11
2017-08-21T12:03:35.060Z,24.02
2017-08-21T12:06:02.669Z,24.40
2017-08-21T12:08:30.290Z,24.60
2017-08-21T12:10:57.886Z,24.81
2017-08-21T12:13:25.538Z,25.00
2017-08-21T12:15:53.130Z,24.80
2017-08-21T12:18:20.759Z,24.67
2017-08-21T12:20:48.375Z,24.69
2017-08-21T12:23:16.020Z,24.78
2017-08-21T12:25:43.620Z,24.98
2017-08-21T12:28:11.242Z,24.63
2017-08-21T12:30:38.856Z,24.41
2017-08-21T12:33:06.482Z,24.44
2017-08-21T12:35:34.122Z,24.75
2017-08-21T12:38:01.787Z,24.73
2017-08-21T12:40:29.499Z,24.96
2017-08-21T12:42:57.106Z,24.86
2017-08-21T12:45:24.743Z,24.65
2017-08-21T12:47:52.347Z,24.86
2017-08-21T12:50:19.981Z,25.08
2017-08-21T12:52:47.606Z,25.02
2017-08-21T12:55:15.226Z,24.92
2017-08-21T12:57:42.811Z,24.93
2017-08-21T13:00:10.434Z,25.15
2017-08-21T13:02:38.031Z,24.55
2017-08-21T13:05:05.737Z,24.49
2017-08-21T13:07:33.347Z,24.85
2017-08-21T13:10:00.975Z,25.41
2017-08-21T13:12:28.582Z,25.82
2017-08-21T13:14:56.328Z,26.17
2017-08-21T13:17:23.921Z,26.19
2017-08-21T13:19:51.551Z,25.72
2017-08-21T13:22:19.150Z,25.96
2017-08-21T13:24:46.790Z,26.21
2017-08-21T13:27:14.398Z,26.02
2017-08-21T13:29:42.022Z,26.41
2017-08-21T13:32:09.636Z,25.38
2017-08-21T13:34:37.247Z,24.82
2017-08-21T13:37:04.835Z,25.06
2017-08-21T13:39:32.459Z,25.43
2017-08-21T13:42:00.078Z,25.55
2017-08-21T13:44:27.714Z,25.94
2017-08-21T13:46:55.298Z,26.45
2017-08-21T13:49:22.955Z,26.28
2017-08-21T13:51:50.548Z,25.82
2017-08-21T13:54:18.184Z,25.74
2017-08-21T13:56:45.782Z,25.99
2017-08-21T13:59:13.398Z,26.47
2017-08-21T14:01:40.993Z,26.81
2017-08-21T14:04:08.698Z,26.13
2017-08-21T14:06:36.291Z,26.38
2017-08-21T14:09:03.918Z,26.61
2017-08-21T14:11:31.543Z,26.82
2017-08-21T14:13:59.137Z,26.83
2017-08-21T14:16:26.863Z,26.42
2017-08-21T14:18:54.466Z,25.88
2017-08-21T14:21:22.095Z,26.15
2017-08-21T14:23:49.686Z,25.47
2017-08-21T14:26:17.327Z,26.05
2017-08-21T14:28:44.930Z,25.79
2017-08-21T14:31:12.543Z,25.97
2017-08-21T14:33:40.127Z,26.36
2017-08-21T14:36:07.747Z,25.95
2017-08-21T14:38:35.365Z,25.85
2017-08-21T14:41:02.978Z,26.03
2017-08-21T14:43:30.583Z,26.48
2017-08-21T14:45:58.227Z,26.15
2017-08-21T14:48:25.837Z,26.38
2017-08-21T14:50:53.419Z,26.45
2017-08-21T14:53:21.038Z,26.12
2017-08-21T14:55:48.631Z,26.19
2017-08-21T14:58:16.263Z,26.43
2017-08-21T15:00:43.867Z,26.77
2017-08-21T15:03:11.505Z,26.18
2017-08-21T15:05:39.139Z,26.41
2017-08-21T15:08:06.762Z,26.47
2017-08-21T15:10:34.453Z,26.64
2017-08-21T15:13:02.086Z,26.87
2017-08-21T15:15:29.690Z,26.62
2017-08-21T15:17:57.351Z,26.61
2017-08-21T15:20:24.942Z,26.65
2017-08-21T15:22:52.602Z,26.55
2017-08-21T15:25:20.202Z,26.54
2017-08-21T15:27:47.842Z,26.85
2017-08-21T15:30:15.426Z,26.96
2017-08-21T15:32:43.063Z,27.19
2017-08-21T15:35:10.680Z,26.97
2017-08-21T15:37:38.315Z,26.97
2017-08-21T15:40:05.925Z,27.29
2017-08-21T15:42:33.527Z,26.69
2017-08-21T15:45:01.167Z,26.68
2017-08-21T15:47:28.787Z,26.09
2017-08-21T15:49:56.394Z,26.13
2017-08-21T15:52:24.070Z,26.44
2017-08-21T15:54:51.679Z,26.33
2017-08-21T15:57:19.286Z,26.30
2017-08-21T15:59:46.898Z,26.05
2017-08-21T16:02:14.504Z,25.78
2017-08-21T16:04:42.118Z,25.78
2017-08-21T16:07:09.707Z,25.38
2017-08-21T16:09:37.346Z,25.09
2017-08-21T16:12:05.037Z,25.01
2017-08-21T16:14:32.646Z,24.99
2017-08-21T16:17:00.256Z,25.02
2017-08-21T16:19:27.895Z,25.16
2017-08-21T16:21:55.512Z,25.65
2017-08-21T16:24:23.126Z,25.71
2017-08-21T16:26:50.760Z,26.03
2017-08-21T16:29:18.406Z,26.29
2017-08-21T16:31:46.003Z,26.29
2017-08-21T16:34:13.695Z,26.08
2017-08-21T16:36:41.293Z,25.43
2017-08-21T16:39:08.937Z,24.92
2017-08-21T16:41:36.527Z,24.97
2017-08-21T16:44:04.143Z,25.17
2017-08-21T16:46:31.768Z,25.23
2017-08-21T16:48:59.386Z,25.19
2017-08-21T16:51:27.014Z,25.21
2017-08-21T16:53:54.605Z,25.16
2017-08-21T16:56:22.235Z,25.13
2017-08-21T16:58:49.827Z,25.00
2017-08-21T17:01:17.443Z,24.91
2017-08-21T17:03:45.049Z,24.82
2017-08-21T17:06:12.675Z,24.73
2017-08-21T17:08:40.295Z,24.70
2017-08-21T17:11:07.946Z,24.59
2017-08-21T17:13:35.602Z,24.57
2017-08-21T17:16:03.230Z,24.56
2017-08-21T17:18:30.870Z,24.49
2017-08-21T17:20:58.467Z,24.44
2017-08-21T17:23:26.122Z,24.41
2017-08-21T17:25:53.722Z,24.34
2017-08-21T17:28:21.350Z,24.21
2017-08-21T17:30:48.966Z,24.05
2017-08-21T17:33:16.600Z,23.94
2017-08-21T17:35:44.194Z,23.89
2017-08-21T17:38:11.843Z,23.81
2017-08-21T17:40:39.459Z,23.73
2017-08-21T17:43:07.117Z,23.62
2017-08-21T17:45:34.719Z,23.55
2017-08-21T17:48:02.483Z,23.51
2017-08-21T17:50:30.067Z,23.44
2017-08-21T17:52:57.703Z,23.41
2017-08-21T17:55:25.310Z,23.49
2017-08-21T17:57:52.927Z,23.51
2017-08-21T18:00:20.556Z,23.39
2017-08-21T18:02:48.219Z,23.25
2017-08-21T18:05:15.834Z,23.26
2017-08-21T18:07:43.468Z,23.33
2017-08-21T18:10:11.069Z,23.36
2017-08-21T18:12:38.712Z,23.39
2017-08-21T18:15:06.299Z,23.42
2017-08-21T18:17:33.936Z,23.47
2017-08-21T18:20:01.658Z,23.48
2017-08-21T18:22:29.278Z,23.33
2017-08-21T18:24:56.884Z,23.30
2017-08-21T18:27:24.514Z,23.31
2017-08-21T18:29:52.149Z,23.24
2017-08-21T18:32:19.786Z,23.20
2017-08-21T18:34:47.384Z,23.04
2017-08-21T18:37:14.986Z,22.94
2017-08-21T18:39:42.721Z,22.75
2017-08-21T18:42:10.371Z,22.65
2017-08-21T18:44:38.022Z,22.60
2017-08-21T18:47:05.631Z,22.53
2017-08-21T18:49:33.266Z,22.42
2017-08-21T18:52:00.858Z,22.39
2017-08-21T18:54:28.487Z,22.34
2017-08-21T18:56:56.090Z,22.29
2017-08-21T18:59:23.726Z,22.29
2017-08-21T19:01:51.327Z,22.31
2017-08-21T19:04:18.971Z,22.37
2017-08-21T19:06:46.590Z,22.37
2017-08-21T19:09:14.217Z,22.33
2017-08-21T19:11:41.825Z,22.37
2017-08-21T19:14:09.483Z,22.42
2017-08-21T19:16:37.090Z,22.46
2017-08-21T19:19:04.841Z,22.49
2017-08-21T19:21:32.450Z,22.46
2017-08-21T19:24:00.052Z,22.42
2017-08-21T19:26:27.674Z,22.35
2017-08-21T19:28:55.276Z,22.33
2017-08-21T19:31:22.940Z,22.32
2017-08-21T19:33:50.515Z,22.26
2017-08-21T19:36:18.160Z,22.15
2017-08-21T19:38:45.786Z,22.07
2017-08-21T19:41:13.410Z,22.07
2017-08-21T19:43:41.040Z,22.01
2017-08-21T19:46:08.663Z,21.94
2017-08-21T19:48:36.250Z,21.86
2017-08-21T19:51:03.883Z,21.81
2017-08-21T19:53:31.475Z,21.74
2017-08-21T19:55:59.123Z,21.76
2017-08-21T19:58:26.743Z,21.69
2017-08-21T20:00:54.386Z,21.57
2017-08-21T20:03:21.992Z,21.52
2017-08-21T20:05:49.616Z,21.47
2017-08-21T20:08:17.233Z,21.45
2017-08-21T20:10:44.855Z,21.44
2017-08-21T20:13:12.467Z,21.47
2017-08-21T20:15:40.114Z,21.52
2017-08-21T20:18:07.741Z,21.49
2017-08-21T20:20:35.349Z,21.39
2017-08-21T20:23:03.003Z,21.32
2017-08-21T20:25:30.631Z,21.36
2017-08-21T20:27:58.256Z,21.31
2017-08-21T20:30:25.890Z,21.32
2017-08-21T20:32:53.498Z,21.25
2017-08-21T20:35:21.110Z,21.09
2017-08-21T20:37:48.742Z,21.04
2017-08-21T20:40:16.330Z,21.07
2017-08-21T20:42:43.999Z,21.10
2017-08-21T20:45:11.686Z,21.08
2017-08-21T20:47:39.362Z,21.09
2017-08-21T20:50:06.952Z,21.11
2017-08-21T20:52:34.610Z,20.97
2017-08-21T20:55:02.278Z,20.92
2017-08-21T20:57:29.908Z,20.95
2017-08-21T20:59:57.517Z,20.88
2017-08-21T21:02:25.138Z,20.83
2017-08-21T21:04:52.787Z,20.64
2017-08-21T21:07:20.452Z,20.51
2017-08-21T21:09:48.038Z,20.54
2017-08-21T21:12:15.672Z,20.58
2017-08-21T21:14:43.278Z,20.59
2017-08-21T21:17:10.910Z,20.59
2017-08-21T21:19:38.510Z,20.56
2017-08-21T21:22:06.178Z,20.53
2017-08-21T21:24:33.771Z,20.46
2017-08-21T21:27:01.411Z,20.42
2017-08-21T21:29:29.085Z,20.39
2017-08-21T21:31:56.674Z,20.46
2017-08-21T21:34:24.350Z,20.48
2017-08-21T21:36:51.970Z,20.43
2017-08-21T21:39:19.592Z,20.32
2017-08-21T21:41:47.211Z,20.32
2017-08-21T21:44:14.846Z,20.31
2017-08-21T21:46:42.447Z,20.27
2017-08-21T21:49:10.078Z,20.25
2017-08-21T21:51:37.674Z,20.28
2017-08-21T21:54:05.300Z,20.31
2017-08-21T21:56:32.943Z,20.31
2017-08-21T21:59:00.579Z,20.32
2017-08-21T22:01:28.207Z,20.30
2017-08-21T22:03:55.835Z,20.20
2017-08-21T22:06:23.454Z,20.18
2017-08-21T22:08:51.058Z,20.23
2017-08-21T22:11:18.691Z,20.25
2017-08-21T22:13:46.282Z,20.19
2017-08-21T22:16:13.927Z,20.15
2017-08-21T22:18:41.508Z,20.11
2017-08-21T22:21:09.157Z,20.17
2017-08-21T22:23:36.779Z,20.21
2017-08-21T22:26:04.402Z,20.27
2017-08-21T22:28:32.000Z,20.20
2017-08-21T22:30:59.662Z,20.11
2017-08-21T22:33:27.259Z,20.07
2017-08-21T22:35:54.907Z,20.07
2017-08-21T22:38:22.524Z,19.94
2017-08-21T22:40:50.165Z,19.87
2017-08-21T22:43:17.770Z,19.84
2017-08-21T22:45:45.422Z,19.89
2017-08-21T22:48:13.134Z,19.82
2017-08-21T22:50:40.775Z,19.78
2017-08-21T22:53:08.381Z,19.73
2017-08-21T22:55:36.026Z,19.70
2017-08-21T22:58:03.611Z,19.76
2017-08-21T23:00:31.215Z,19.82
2017-08-21T23:02:58.834Z,19.66
2017-08-21T23:05:26.477Z,19.61
2017-08-21T23:07:54.243Z,19.44
2017-08-21T23:10:21.876Z,19.45
2017-08-21T23:12:49.510Z,19.40
2017-08-21T23:15:17.102Z,19.35
2017-08-21T23:17:44.734Z,19.37
2017-08-21T23:20:12.347Z,19.35
2017-08-21T23:22:39.963Z,19.22
2017-08-21T23:25:07.550Z,19.08
2017-08-21T23:27:35.183Z,19.05
2017-08-21T23:30:02.770Z,18.95
2017-08-21T23:32:30.443Z,18.89
2017-08-21T23:34:58.055Z,18.81
2017-08-21T23:37:25.670Z,18.73
2017-08-21T23:39:53.282Z,18.67
2017-08-21T23:42:20.918Z,18.62
2017-08-21T23:44:48.511Z,18.61
2017-08-21T23:47:16.153Z,18.57
2017-08-21T23:49:43.764Z,18.46
2017-08-21T23:52:11.357Z,18.46
2017-08-21T23:54:39.067Z,18.47
2017-08-21T23:57:06.661Z,18.49
2017-08-21T23:59:34.282Z,18.42
